sensor_id;sensor_type;location;lat;lon;timestamp;pressure;altitude;pressure_sealevel;temperature;humidity
68988;BME280;56038;46.080;11.116;2023-04-22T00:00:25;99240.19;;;11.98;69.40
68988;BME280;56038;46.080;11.116;2023-04-22T00:05:33;99236.94;;;11.93;69.21
68988;BME280;56038;46.080;11.116;2023-04-22T00:10:35;99234.56;;;11.89;69.55
68988;BME280;56038;46.080;11.116;2023-04-22T00:15:38;99240.91;;;11.83;70.01
68988;BME280;56038;46.080;11.116;2023-04-22T00:20:40;99238.22;;;11.66;71.03
68988;BME280;56038;46.080;11.116;2023-04-22T00:32:04;99229.03;;;11.57;71.81
68988;BME280;56038;46.080;11.116;2023-04-22T00:37:05;99240.56;;;11.53;71.78
68988;BME280;56038;46.080;11.116;2023-04-22T00:42:07;99228.75;;;11.45;71.67
68988;BME280;56038;46.080;11.116;2023-04-22T00:47:11;99233.34;;;11.39;71.79
68988;BME280;56038;46.080;11.116;2023-04-22T00:52:13;99238.66;;;11.38;71.60
68988;BME280;56038;46.080;11.116;2023-04-22T00:57:14;99231.44;;;11.24;72.16
68988;BME280;56038;46.080;11.116;2023-04-22T01:02:18;99236.00;;;11.19;71.88
68988;BME280;56038;46.080;11.116;2023-04-22T01:07:20;99230.00;;;11.17;72.74
68988;BME280;56038;46.080;11.116;2023-04-22T01:12:22;99231.97;;;11.12;72.35
68988;BME280;56038;46.080;11.116;2023-04-22T01:17:25;99245.19;;;11.09;72.83
68988;BME280;56038;46.080;11.116;2023-04-22T01:22:28;99244.41;;;11.07;72.28
68988;BME280;56038;46.080;11.116;2023-04-22T01:27:35;99246.56;;;10.97;72.98
68988;BME280;56038;46.080;11.116;2023-04-22T01:32:38;99253.69;;;10.94;72.82
68988;BME280;56038;46.080;11.116;2023-04-22T01:37:40;99254.69;;;10.91;73.49
68988;BME280;56038;46.080;11.116;2023-04-22T01:42:43;99265.25;;;10.88;73.32
68988;BME280;56038;46.080;11.116;2023-04-22T01:58:19;99264.75;;;10.80;73.47
68988;BME280;56038;46.080;11.116;2023-04-22T02:24:03;99263.75;;;10.62;74.45
68988;BME280;56038;46.080;11.116;2023-04-22T02:29:05;99267.16;;;10.64;74.60
68988;BME280;56038;46.080;11.116;2023-04-22T02:44:28;99261.22;;;10.61;74.19
68988;BME280;56038;46.080;11.116;2023-04-22T03:42:34;99257.00;;;10.36;75.59
68988;BME280;56038;46.080;11.116;2023-04-22T03:47:36;99260.31;;;10.40;74.96
68988;BME280;56038;46.080;11.116;2023-04-22T04:08:09;99266.59;;;10.36;75.25
68988;BME280;56038;46.080;11.116;2023-04-22T04:13:12;99260.66;;;10.32;75.40
68988;BME280;56038;46.080;11.116;2023-04-22T04:18:13;99269.34;;;10.33;75.36
68988;BME280;56038;46.080;11.116;2023-04-22T04:23:17;99256.09;;;10.15;76.93
68988;BME280;56038;46.080;11.116;2023-04-22T04:28:18;99263.00;;;10.16;77.08
68988;BME280;56038;46.080;11.116;2023-04-22T04:33:21;99257.63;;;10.21;76.48
68988;BME280;56038;46.080;11.116;2023-04-22T04:38:24;99262.72;;;10.24;76.67
68988;BME280;56038;46.080;11.116;2023-04-22T04:43:26;99253.94;;;10.27;76.42
68988;BME280;56038;46.080;11.116;2023-04-22T04:48:28;99261.75;;;10.27;76.24
68988;BME280;56038;46.080;11.116;2023-04-22T04:53:31;99267.38;;;10.16;76.58
68988;BME280;56038;46.080;11.116;2023-04-22T04:58:33;99268.94;;;10.20;76.69
68988;BME280;56038;46.080;11.116;2023-04-22T05:03:34;99284.34;;;10.28;76.06
68988;BME280;56038;46.080;11.116;2023-04-22T05:08:37;99285.00;;;10.33;75.26
68988;BME280;56038;46.080;11.116;2023-04-22T05:13:39;99283.94;;;10.37;75.59
68988;BME280;56038;46.080;11.116;2023-04-22T05:18:40;99290.50;;;10.47;74.98
68988;BME280;56038;46.080;11.116;2023-04-22T05:23:43;99293.63;;;10.55;74.60
68988;BME280;56038;46.080;11.116;2023-04-22T05:28:45;99288.81;;;10.46;75.51
68988;BME280;56038;46.080;11.116;2023-04-22T05:33:47;99298.53;;;10.42;75.24
68988;BME280;56038;46.080;11.116;2023-04-22T05:38:49;99306.19;;;10.47;75.57
68988;BME280;56038;46.080;11.116;2023-04-22T05:43:51;99311.00;;;10.56;75.02
68988;BME280;56038;46.080;11.116;2023-04-22T05:48:53;99301.75;;;10.69;74.84
68988;BME280;56038;46.080;11.116;2023-04-22T05:53:56;99306.19;;;10.88;73.61
68988;BME280;56038;46.080;11.116;2023-04-22T05:58:58;99303.00;;;11.01;73.23
68988;BME280;56038;46.080;11.116;2023-04-22T06:03:59;99302.75;;;11.07;72.87
68988;BME280;56038;46.080;11.116;2023-04-22T06:09:02;99305.91;;;11.34;72.36
68988;BME280;56038;46.080;11.116;2023-04-22T06:14:06;99304.59;;;11.63;71.40
68988;BME280;56038;46.080;11.116;2023-04-22T06:19:07;99298.00;;;11.94;70.48
68988;BME280;56038;46.080;11.116;2023-04-22T06:24:10;99302.47;;;12.28;69.42
68988;BME280;56038;46.080;11.116;2023-04-22T06:29:12;99299.75;;;12.48;68.26
68988;BME280;56038;46.080;11.116;2023-04-22T06:34:14;99300.13;;;12.58;67.63
68988;BME280;56038;46.080;11.116;2023-04-22T06:39:17;99301.22;;;12.71;67.29
68988;BME280;56038;46.080;11.116;2023-04-22T06:44:18;99300.63;;;12.66;66.88
68988;BME280;56038;46.080;11.116;2023-04-22T06:49:20;99300.53;;;12.68;66.53
68988;BME280;56038;46.080;11.116;2023-04-22T06:54:23;99304.16;;;12.82;66.66
68988;BME280;56038;46.080;11.116;2023-04-22T06:59:24;99304.94;;;12.84;66.59
68988;BME280;56038;46.080;11.116;2023-04-22T07:04:26;99310.88;;;12.88;66.45
68988;BME280;56038;46.080;11.116;2023-04-22T07:09:30;99301.47;;;13.01;66.20
68988;BME280;56038;46.080;11.116;2023-04-22T07:14:31;99296.59;;;13.11;66.35
68988;BME280;56038;46.080;11.116;2023-04-22T07:19:33;99298.38;;;13.28;65.98
68988;BME280;56038;46.080;11.116;2023-04-22T07:24:36;99301.25;;;13.39;65.63
68988;BME280;56038;46.080;11.116;2023-04-22T07:29:38;99294.72;;;13.63;65.31
68988;BME280;56038;46.080;11.116;2023-04-22T07:34:39;99291.28;;;13.78;64.71
68988;BME280;56038;46.080;11.116;2023-04-22T07:39:42;99293.91;;;13.94;64.37
68988;BME280;56038;46.080;11.116;2023-04-22T07:44:44;99286.19;;;14.07;63.99
68988;BME280;56038;46.080;11.116;2023-04-22T07:49:45;99280.41;;;14.32;63.49
68988;BME280;56038;46.080;11.116;2023-04-22T07:54:49;99276.00;;;14.48;63.11
68988;BME280;56038;46.080;11.116;2023-04-22T07:59:50;99273.88;;;14.55;62.92
68988;BME280;56038;46.080;11.116;2023-04-22T08:04:52;99273.47;;;14.77;60.83
68988;BME280;56038;46.080;11.116;2023-04-22T08:09:55;99279.50;;;14.93;61.75
68988;BME280;56038;46.080;11.116;2023-04-22T08:14:57;99267.44;;;15.19;60.67
68988;BME280;56038;46.080;11.116;2023-04-22T08:19:58;99260.84;;;15.40;59.67
68988;BME280;56038;46.080;11.116;2023-04-22T08:25:02;99254.63;;;15.55;59.42
68988;BME280;56038;46.080;11.116;2023-04-22T08:30:04;99246.38;;;15.62;59.06
68988;BME280;56038;46.080;11.116;2023-04-22T08:35:07;99255.88;;;15.64;58.06
68988;BME280;56038;46.080;11.116;2023-04-22T08:40:10;99245.34;;;15.78;58.26
68988;BME280;56038;46.080;11.116;2023-04-22T08:45:12;99238.31;;;15.92;58.03
68988;BME280;56038;46.080;11.116;2023-04-22T08:50:14;99227.94;;;16.30;57.31
68988;BME280;56038;46.080;11.116;2023-04-22T08:55:17;99224.19;;;16.46;56.02
68988;BME280;56038;46.080;11.116;2023-04-22T09:00:20;99216.19;;;16.61;55.94
68988;BME280;56038;46.080;11.116;2023-04-22T09:05:25;99210.13;;;16.86;53.97
68988;BME280;56038;46.080;11.116;2023-04-22T09:10:37;99202.31;;;17.22;54.16
68988;BME280;56038;46.080;11.116;2023-04-22T09:15:39;99196.09;;;17.60;52.52
68988;BME280;56038;46.080;11.116;2023-04-22T09:20:41;99189.97;;;17.72;52.54
68988;BME280;56038;46.080;11.116;2023-04-22T09:25:44;99196.16;;;18.08;50.79
68988;BME280;56038;46.080;11.116;2023-04-22T09:30:46;99182.09;;;18.42;51.35
68988;BME280;56038;46.080;11.116;2023-04-22T09:35:48;99167.56;;;18.83;49.42
68988;BME280;56038;46.080;11.116;2023-04-22T09:40:51;99163.75;;;19.09;47.50
68988;BME280;56038;46.080;11.116;2023-04-22T09:45:53;99148.78;;;19.64;47.63
68988;BME280;56038;46.080;11.116;2023-04-22T09:50:55;99148.50;;;20.11;46.32
68988;BME280;56038;46.080;11.116;2023-04-22T09:55:58;99137.66;;;20.76;44.74
68988;BME280;56038;46.080;11.116;2023-04-22T10:01:00;99128.66;;;21.29;44.38
68988;BME280;56038;46.080;11.116;2023-04-22T10:06:04;99113.34;;;21.61;43.80
68988;BME280;56038;46.080;11.116;2023-04-22T10:11:11;99107.25;;;21.99;42.32
68988;BME280;56038;46.080;11.116;2023-04-22T10:16:13;99112.16;;;21.94;37.04
68988;BME280;56038;46.080;11.116;2023-04-22T10:21:16;99100.38;;;21.68;39.65
68988;BME280;56038;46.080;11.116;2023-04-22T10:26:42;99102.06;;;21.98;37.86
68988;BME280;56038;46.080;11.116;2023-04-22T10:31:50;99096.13;;;22.52;39.44
68988;BME280;56038;46.080;11.116;2023-04-22T10:36:59;99089.38;;;23.32;38.34
68988;BME280;56038;46.080;11.116;2023-04-22T10:42:07;99082.16;;;23.70;35.17
68988;BME280;56038;46.080;11.116;2023-04-22T10:47:23;99070.28;;;23.37;31.86
68988;BME280;56038;46.080;11.116;2023-04-22T10:52:28;99064.25;;;23.35;34.40
68988;BME280;56038;46.080;11.116;2023-04-22T10:57:40;99053.41;;;23.99;30.04
68988;BME280;56038;46.080;11.116;2023-04-22T11:02:43;99048.53;;;24.64;34.10
68988;BME280;56038;46.080;11.116;2023-04-22T11:07:46;99041.88;;;24.42;33.33
68988;BME280;56038;46.080;11.116;2023-04-22T11:12:50;99037.66;;;24.32;33.18
68988;BME280;56038;46.080;11.116;2023-04-22T11:17:53;99033.59;;;24.02;33.62
68988;BME280;56038;46.080;11.116;2023-04-22T11:22:56;99020.19;;;24.19;32.92
68988;BME280;56038;46.080;11.116;2023-04-22T11:27:59;99023.59;;;24.04;32.20
68988;BME280;56038;46.080;11.116;2023-04-22T11:33:01;99014.75;;;24.03;32.21
68988;BME280;56038;46.080;11.116;2023-04-22T11:38:04;99003.97;;;24.13;31.97
68988;BME280;56038;46.080;11.116;2023-04-22T11:43:09;98999.31;;;24.67;31.76
68988;BME280;56038;46.080;11.116;2023-04-22T11:48:13;98993.88;;;23.81;31.86
68988;BME280;56038;46.080;11.116;2023-04-22T11:53:17;98981.50;;;23.98;31.12
68988;BME280;56038;46.080;11.116;2023-04-22T11:58:24;98973.25;;;24.09;30.37
68988;BME280;56038;46.080;11.116;2023-04-22T12:03:28;98971.56;;;24.08;31.35
68988;BME280;56038;46.080;11.116;2023-04-22T12:08:32;98968.56;;;24.03;30.85
68988;BME280;56038;46.080;11.116;2023-04-22T12:13:41;98962.25;;;25.14;29.77
68988;BME280;56038;46.080;11.116;2023-04-22T12:24:45;98954.81;;;24.24;29.75
68988;BME280;56038;46.080;11.116;2023-04-22T12:29:52;98944.78;;;24.17;30.50
68988;BME280;56038;46.080;11.116;2023-04-22T12:34:54;98939.53;;;24.68;29.41
68988;BME280;56038;46.080;11.116;2023-04-22T12:39:56;98935.66;;;26.10;29.78
68988;BME280;56038;46.080;11.116;2023-04-22T12:44:59;98926.75;;;27.27;29.22
68988;BME280;56038;46.080;11.116;2023-04-22T12:50:00;98923.25;;;26.96;28.85
68988;BME280;56038;46.080;11.116;2023-04-22T12:55:06;98913.91;;;27.60;28.54
68988;BME280;56038;46.080;11.116;2023-04-22T13:00:11;98909.66;;;28.03;26.43
68988;BME280;56038;46.080;11.116;2023-04-22T13:05:14;98901.69;;;27.66;27.62
68988;BME280;56038;46.080;11.116;2023-04-22T13:10:16;98895.50;;;27.95;27.75
68988;BME280;56038;46.080;11.116;2023-04-22T13:15:20;98895.19;;;27.75;27.40
68988;BME280;56038;46.080;11.116;2023-04-22T13:30:43;98882.94;;;26.89;28.45
68988;BME280;56038;46.080;11.116;2023-04-22T13:35:48;98873.06;;;26.90;28.85
68988;BME280;56038;46.080;11.116;2023-04-22T13:40:50;98859.84;;;26.57;28.79
68988;BME280;56038;46.080;11.116;2023-04-22T14:01:23;98830.38;;;25.62;29.00
68988;BME280;56038;46.080;11.116;2023-04-22T14:06:25;98826.03;;;25.61;29.92
68988;BME280;56038;46.080;11.116;2023-04-22T14:11:27;98836.41;;;25.40;30.67
68988;BME280;56038;46.080;11.116;2023-04-22T14:16:30;98829.25;;;25.41;30.81
68988;BME280;56038;46.080;11.116;2023-04-22T14:21:32;98824.88;;;25.72;30.05
68988;BME280;56038;46.080;11.116;2023-04-22T14:26:33;98824.38;;;24.87;30.85
68988;BME280;56038;46.080;11.116;2023-04-22T14:31:36;98822.09;;;24.34;31.46
68988;BME280;56038;46.080;11.116;2023-04-22T14:36:38;98821.44;;;24.32;32.75
68988;BME280;56038;46.080;11.116;2023-04-22T14:41:39;98816.06;;;23.89;32.71
68988;BME280;56038;46.080;11.116;2023-04-22T14:46:42;98812.75;;;23.96;33.54
68988;BME280;56038;46.080;11.116;2023-04-22T14:51:44;98815.03;;;24.16;33.04
68988;BME280;56038;46.080;11.116;2023-04-22T15:17:27;98800.91;;;23.64;35.57
68988;BME280;56038;46.080;11.116;2023-04-22T15:22:30;98802.13;;;23.70;35.72
68988;BME280;56038;46.080;11.116;2023-04-22T15:27:31;98811.59;;;23.64;35.66
68988;BME280;56038;46.080;11.116;2023-04-22T15:37:45;98816.72;;;23.14;36.71
68988;BME280;56038;46.080;11.116;2023-04-22T15:42:46;98812.53;;;22.76;37.36
68988;BME280;56038;46.080;11.116;2023-04-22T15:47:49;98817.19;;;22.74;37.59
68988;BME280;56038;46.080;11.116;2023-04-22T15:52:53;98820.38;;;22.41;38.12
68988;BME280;56038;46.080;11.116;2023-04-22T15:57:54;98801.28;;;22.46;38.16
68988;BME280;56038;46.080;11.116;2023-04-22T16:02:56;98808.22;;;22.11;38.74
68988;BME280;56038;46.080;11.116;2023-04-22T16:07:59;98807.56;;;21.63;39.98
68988;BME280;56038;46.080;11.116;2023-04-22T16:13:02;98800.75;;;21.41;40.32
68988;BME280;56038;46.080;11.116;2023-04-22T16:18:03;98801.06;;;21.18;40.80
68988;BME280;56038;46.080;11.116;2023-04-22T16:23:07;98798.69;;;21.15;41.12
68988;BME280;56038;46.080;11.116;2023-04-22T16:28:08;98807.78;;;20.93;42.18
68988;BME280;56038;46.080;11.116;2023-04-22T16:33:10;98807.38;;;20.69;42.23
68988;BME280;56038;46.080;11.116;2023-04-22T16:38:13;98814.44;;;20.40;43.31
68988;BME280;56038;46.080;11.116;2023-04-22T16:43:14;98812.59;;;20.30;43.25
68988;BME280;56038;46.080;11.116;2023-04-22T16:48:16;98819.00;;;20.18;43.83
68988;BME280;56038;46.080;11.116;2023-04-22T16:53:19;98820.81;;;20.18;43.94
68988;BME280;56038;46.080;11.116;2023-04-22T16:58:23;98815.84;;;19.94;44.29
68988;BME280;56038;46.080;11.116;2023-04-22T17:03:25;98815.44;;;19.89;44.48
68988;BME280;56038;46.080;11.116;2023-04-22T17:08:28;98820.88;;;19.57;45.67
68988;BME280;56038;46.080;11.116;2023-04-22T17:13:29;98819.00;;;19.27;46.39
68988;BME280;56038;46.080;11.116;2023-04-22T17:18:31;98824.91;;;18.98;47.15
68988;BME280;56038;46.080;11.116;2023-04-22T17:23:35;98818.06;;;18.96;47.12
68988;BME280;56038;46.080;11.116;2023-04-22T17:28:37;98829.88;;;18.92;46.78
68988;BME280;56038;46.080;11.116;2023-04-22T17:33:39;98831.25;;;18.75;47.41
68988;BME280;56038;46.080;11.116;2023-04-22T17:38:42;98843.91;;;18.60;48.62
68988;BME280;56038;46.080;11.116;2023-04-22T17:43:43;98851.28;;;18.45;48.72
68988;BME280;56038;46.080;11.116;2023-04-22T17:48:45;98858.88;;;18.39;48.29
68988;BME280;56038;46.080;11.116;2023-04-22T17:53:48;98856.03;;;18.31;48.17
68988;BME280;56038;46.080;11.116;2023-04-22T17:58:51;98866.97;;;18.15;48.77
68988;BME280;56038;46.080;11.116;2023-04-22T18:03:53;98870.00;;;17.99;49.68
68988;BME280;56038;46.080;11.116;2023-04-22T18:08:56;98881.00;;;17.93;49.42
68988;BME280;56038;46.080;11.116;2023-04-22T18:13:59;98882.34;;;17.87;49.48
68988;BME280;56038;46.080;11.116;2023-04-22T18:19:01;98889.16;;;17.79;49.58
68988;BME280;56038;46.080;11.116;2023-04-22T18:24:07;98905.97;;;17.78;49.93
68988;BME280;56038;46.080;11.116;2023-04-22T18:29:08;98915.72;;;17.77;49.54
68988;BME280;56038;46.080;11.116;2023-04-22T18:34:10;98919.69;;;17.72;49.75
68988;BME280;56038;46.080;11.116;2023-04-22T18:39:15;98931.81;;;17.74;49.51
68988;BME280;56038;46.080;11.116;2023-04-22T18:44:17;98933.97;;;17.69;49.47
68988;BME280;56038;46.080;11.116;2023-04-22T18:49:19;98943.56;;;17.70;49.58
68988;BME280;56038;46.080;11.116;2023-04-22T18:54:22;98937.56;;;17.68;49.53
68988;BME280;56038;46.080;11.116;2023-04-22T18:59:24;98940.38;;;17.65;49.69
68988;BME280;56038;46.080;11.116;2023-04-22T19:04:26;98949.03;;;17.67;49.59
68988;BME280;56038;46.080;11.116;2023-04-22T19:09:29;98943.75;;;17.67;49.53
68988;BME280;56038;46.080;11.116;2023-04-22T19:14:31;98953.47;;;17.66;49.66
68988;BME280;56038;46.080;11.116;2023-04-22T19:19:33;98968.47;;;17.66;49.56
68988;BME280;56038;46.080;11.116;2023-04-22T19:24:36;98963.66;;;17.60;49.89
68988;BME280;56038;46.080;11.116;2023-04-22T19:29:39;98980.94;;;17.53;50.04
68988;BME280;56038;46.080;11.116;2023-04-22T19:34:41;98988.94;;;17.40;50.38
68988;BME280;56038;46.080;11.116;2023-04-22T19:39:45;98984.72;;;17.38;50.60
68988;BME280;56038;46.080;11.116;2023-04-22T19:44:47;98987.91;;;17.30;51.39
68988;BME280;56038;46.080;11.116;2023-04-22T19:49:49;98995.97;;;17.28;51.25
68988;BME280;56038;46.080;11.116;2023-04-22T19:54:53;98995.13;;;17.28;51.80
68988;BME280;56038;46.080;11.116;2023-04-22T19:59:58;99001.47;;;17.25;51.38
68988;BME280;56038;46.080;11.116;2023-04-22T20:05:00;99000.00;;;17.21;51.66
68988;BME280;56038;46.080;11.116;2023-04-22T20:10:07;98999.19;;;17.21;51.99
68988;BME280;56038;46.080;11.116;2023-04-22T20:15:09;99000.00;;;17.21;52.78
68988;BME280;56038;46.080;11.116;2023-04-22T20:20:12;99005.69;;;17.28;51.42
68988;BME280;56038;46.080;11.116;2023-04-22T20:25:16;99006.28;;;17.31;51.42
68988;BME280;56038;46.080;11.116;2023-04-22T20:30:18;99006.50;;;17.28;51.92
68988;BME280;56038;46.080;11.116;2023-04-22T20:35:20;98996.81;;;17.29;51.70
68988;BME280;56038;46.080;11.116;2023-04-22T20:40:23;98992.81;;;17.23;52.08
68988;BME280;56038;46.080;11.116;2023-04-22T20:45:25;98995.22;;;17.26;51.67
68988;BME280;56038;46.080;11.116;2023-04-22T20:50:27;98992.47;;;17.28;51.67
68988;BME280;56038;46.080;11.116;2023-04-22T20:55:33;99002.31;;;17.26;52.03
68988;BME280;56038;46.080;11.116;2023-04-22T21:00:35;99004.22;;;17.24;51.96
68988;BME280;56038;46.080;11.116;2023-04-22T21:05:46;99002.66;;;17.21;52.44
68988;BME280;56038;46.080;11.116;2023-04-22T21:10:58;98996.34;;;17.11;53.87
68988;BME280;56038;46.080;11.116;2023-04-22T21:16:02;98996.91;;;17.03;53.00
68988;BME280;56038;46.080;11.116;2023-04-22T21:21:05;99002.81;;;17.07;54.00
68988;BME280;56038;46.080;11.116;2023-04-22T21:26:09;98999.44;;;17.05;52.78
68988;BME280;56038;46.080;11.116;2023-04-22T21:31:11;98993.41;;;17.03;52.79
68988;BME280;56038;46.080;11.116;2023-04-22T21:36:14;98987.53;;;16.99;53.27
68988;BME280;56038;46.080;11.116;2023-04-22T21:41:17;98994.53;;;16.88;53.80
68988;BME280;56038;46.080;11.116;2023-04-22T21:46:18;98998.22;;;16.85;53.99
68988;BME280;56038;46.080;11.116;2023-04-22T21:51:21;98996.16;;;16.52;55.42
68988;BME280;56038;46.080;11.116;2023-04-22T21:56:24;98989.22;;;16.38;55.97
68988;BME280;56038;46.080;11.116;2023-04-22T22:01:26;98993.00;;;16.47;55.58
68988;BME280;56038;46.080;11.116;2023-04-22T22:06:27;98996.63;;;16.33;56.25
68988;BME280;56038;46.080;11.116;2023-04-22T22:11:30;99011.59;;;16.33;56.07
68988;BME280;56038;46.080;11.116;2023-04-22T22:16:32;98994.81;;;16.34;56.02
68988;BME280;56038;46.080;11.116;2023-04-22T22:21:34;99003.56;;;16.34;55.96
68988;BME280;56038;46.080;11.116;2023-04-22T22:26:37;99014.44;;;16.30;56.26
68988;BME280;56038;46.080;11.116;2023-04-22T22:31:40;99017.06;;;16.30;56.45
68988;BME280;56038;46.080;11.116;2023-04-22T22:36:42;99015.50;;;16.14;57.32
68988;BME280;56038;46.080;11.116;2023-04-22T22:41:47;99021.59;;;16.02;58.12
68988;BME280;56038;46.080;11.116;2023-04-22T22:46:49;99024.84;;;16.06;57.76
68988;BME280;56038;46.080;11.116;2023-04-22T22:51:51;99012.00;;;15.88;59.11
68988;BME280;56038;46.080;11.116;2023-04-22T22:56:54;99016.69;;;15.71;60.07
68988;BME280;56038;46.080;11.116;2023-04-22T23:01:57;99017.34;;;15.74;59.51
68988;BME280;56038;46.080;11.116;2023-04-22T23:06:59;99018.19;;;15.75;59.58
68988;BME280;56038;46.080;11.116;2023-04-22T23:12:02;99006.28;;;15.69;59.66
68988;BME280;56038;46.080;11.116;2023-04-22T23:17:04;99016.38;;;15.63;59.85
68988;BME280;56038;46.080;11.116;2023-04-22T23:22:07;99011.78;;;15.52;60.37
68988;BME280;56038;46.080;11.116;2023-04-22T23:27:11;99010.81;;;15.40;60.87
68988;BME280;56038;46.080;11.116;2023-04-22T23:32:14;99006.06;;;15.33;61.42
68988;BME280;56038;46.080;11.116;2023-04-22T23:37:17;99004.97;;;15.22;62.24
68988;BME280;56038;46.080;11.116;2023-04-22T23:42:21;99005.84;;;15.09;63.22
68988;BME280;56038;46.080;11.116;2023-04-22T23:47:22;99002.06;;;14.86;64.80
68988;BME280;56038;46.080;11.116;2023-04-22T23:52:24;98993.16;;;14.74;64.38
68988;BME280;56038;46.080;11.116;2023-04-22T23:57:28;98990.63;;;14.73;64.44
